Sweetwater, New Jersey
Current Conditions -  °F | °C
As of 9:54 AM on Thursday 18 Dec 2014 (Local Time) from KACY Reporting Station
Clear Clear  
Wind Chill: 29°   Ceiling: Unl
Heat Index: 39°   Visibility: 10mi
Dew Point: 21°   Wind: 22mph
Humidity: 49%   Direction: 310°NW
Pressure: 30.06"   Gusts: 30mph
Location:  39.637°N, 74.7602°W
Report Text: KACY 181454Z 31019G26KT 10SM CLR 04/M06 A3006 RMK AO2 PK WND 30026/1448 SLP180 T00391061 50001
Loading
Personal Weather Stations






























Interactive Weather Map New forecast layout! Learn more

10-Day Weather Forecast

Advertisements
Track Severe Weather on mobile